X  Cerrar Datos meteorológicos de aviación METAR     EKVJ Stauning Airport
Temperatura
10°C Temperatura
9°C Punto de rocío
94% Humedad



Viento
6 M/S
14 MPH
23 KM/H
12 NUDO



220°
SO
Condiciones actuales

Nubes mayormente dispersas Nubes mayormente dispersas
Presión 1015.92 (hPa) - 30 (inHg)
Visibilidad 6.2 (milla) - 10 (km)
Aeropuerto
Código de aeropuerto EKVJ

localidad: Stauning Airport
Distancia: 14 (km)

Metar:
EKVJ 241350Z 22012KT 9999 SCT013 BKN016 10/09 Q1016

Hora: 11-24-2020 14:50 CET